Last 24 Hours

Red Mountain

10 Minute Data | America/Los_Angeles
as of 5/9/26 7:17 AM PDT
Date & Time Temp (°F) Dew Pt (°F) RH (%) Wind Spd (mph) Wind Dir (°) Wind Gust (mph) Wind Gst Dir (°) Daily Max Temp (°F) Daily Min Temp (°F)
5/9/26 - 0710 64.4 26.9 24 4.3 WSW | 244 5.0 WSW | 254 65.6 62.2
5/9/26 - 0700 64.3 23.1 21 4.6 WSW | 244 5.0 WSW | 252 65.6 62.2
5/9/26 - 0650 62.6 30.2 29 4.6 SW | 220 5.2 SW | 220 65.6 62.2
5/9/26 - 0640 63.4 30.0 28 5.1 SW | 226 5.8 SW | 229 65.6 62.2
5/9/26 - 0630 64.5 22.6 20 5.3 WSW | 241 5.9 WSW | 239 65.6 62.2
5/9/26 - 0620 64.5 24.4 22 5.2 SW | 232 5.8 WSW | 239 65.6 62.2
5/9/26 - 0610 64.7 20.2 18 5.2 WSW | 243 5.8 WSW | 245 65.6 62.2
5/9/26 - 0600 64.7 20.9 19 4.3 WSW | 245 4.9 WSW | 242 65.6 62.2
5/9/26 - 0550 63.5 28.2 26 4.7 WSW | 251 5.0 WSW | 246 65.6 62.2
5/9/26 - 0540 63.8 27.8 26 5.5 WSW | 253 6.4 WSW | 255 65.6 62.2
5/9/26 - 0530 63.8 27.2 25 4.8 WSW | 249 5.7 WSW | 255 65.6 62.2
5/9/26 - 0520 64.0 25.8 23 5.1 WSW | 242 5.8 WSW | 242 65.6 62.2
5/9/26 - 0510 64.6 22.8 20 5.6 WSW | 246 6.1 WSW | 242 65.6 62.2
5/9/26 - 0500 64.8 23.4 20 5.2 SW | 233 5.6 WSW | 240 65.6 62.2
5/9/26 - 0450 65.5 18.7 16 4.5 SW | 235 5.0 SW | 230 65.6 62.2
5/9/26 - 0440 65.3 19.8 17 4.2 SW | 230 4.5 WSW | 237 65.6 62.2
5/9/26 - 0430 65.0 23.8 21 3.8 SW | 220 4.2 SW | 218 65.6 62.2
5/9/26 - 0420 65.3 20.6 18 4.1 SW | 227 4.8 SW | 220 65.6 62.2
5/9/26 - 0410 64.4 28.3 26 3.9 WSW | 242 4.2 WSW | 245 65.4 62.2
5/9/26 - 0400 65.0 24.5 21 4.2 WSW | 247 4.5 WSW | 248 65.4 62.2
5/9/26 - 0350 65.2 22.7 20 3.3 WSW | 247 3.9 WSW | 252 65.4 62.2
5/9/26 - 0340 64.9 28.2 25 3.4 WSW | 247 3.9 WSW | 249 65.0 62.2
5/9/26 - 0330 64.8 30.4 27 4.0 WSW | 249 4.5 WSW | 246 65.0 62.2
5/9/26 - 0320 64.8 32.0 29 4.0 WSW | 238 4.3 WSW | 240 65.0 62.2
5/9/26 - 0310 64.3 36.0 35 4.1 SW | 221 4.6 SW | 224 65.0 62.2
5/9/26 - 0300 63.4 40.7 43 4.3 SW | 219 4.7 SW | 220 65.0 62.2
5/9/26 - 0250 63.2 42.4 47 4.2 SW | 219 4.5 SW | 225 65.0 62.2
5/9/26 - 0240 62.6 44.9 52 4.4 SW | 224 4.8 SW | 224 65.0 62.2
5/9/26 - 0230 62.4 47.2 57 4.8 SW | 225 5.6 SW | 220 65.0 62.2
5/9/26 - 0220 62.8 45.8 54 5.0 SW | 226 5.4 SW | 228 65.0 62.7
5/9/26 - 0210 63.0 45.8 53 4.7 SW | 222 5.1 SW | 221 65.0 62.8
5/9/26 - 0200 63.5 44.8 51 3.8 SW | 229 4.5 SW | 228 65.0 63.3
5/9/26 - 0150 63.4 46.2 53 4.3 SW | 234 4.9 SW | 236 65.0 63.3
5/9/26 - 0140 63.9 45.8 52 4.4 WSW | 242 5.0 SW | 236 65.0 63.4
5/9/26 - 0130 64.6 41.4 43 3.5 WSW | 238 4.1 WSW | 240 65.0 64.2
5/9/26 - 0120 64.4 43.7 47 4.0 WSW | 246 5.0 WSW | 253 65.0 64.2
5/9/26 - 0110 64.8 42.2 44 3.9 WSW | 244 4.5 WSW | 246 65.0 64.7
5/9/26 - 0100 65.1 41.7 42 4.5 WSW | 252 5.0 WSW | 257 75.2 62.0
5/9/26 - 0050 65.3 41.4 42 4.1 WSW | 252 4.8 WSW | 256 75.2 62.0
5/9/26 - 0040 64.8 44.0 47 3.5 WSW | 246 4.6 WSW | 245 75.2 62.0
5/9/26 - 0030 64.1 45.4 51 3.0 WSW | 249 3.7 WSW | 238 75.2 62.0
5/9/26 - 0020 63.4 50.3 63 3.8 WSW | 251 4.5 WSW | 257 75.2 62.0
5/9/26 - 0010 64.8 45.2 49 1.4 WNW | 292 2.8 W | 263 75.2 62.0
5/9/26 - 0000 66.0 40.3 39 0.8 N | 356 2.0 NNW | 344 75.2 62.0
5/8/26 - 2350 65.6 40.0 39 1.2 NNE | 12 1.9 NNE | 18 75.2 62.0
5/8/26 - 2340 64.1 48.7 57 0.5 N | 350 1.8 N | 354 75.2 62.0
5/8/26 - 2330 65.2 45.7 49 2.4 NNE | 25 3.7 NE | 35 75.2 62.0
5/8/26 - 2320 65.0 48.5 55 2.1 NNE | 17 3.4 NNE | 16 75.2 62.0
5/8/26 - 2310 65.2 48.5 55 4.0 NNE | 26 5.0 NNE | 24 75.2 62.0
5/8/26 - 2300 64.5 50.2 60 4.3 NE | 41 5.0 NE | 39 75.2 62.0
5/8/26 - 2250 64.2 50.8 62 4.3 NE | 52 5.6 ENE | 57 75.2 62.0
5/8/26 - 2240 64.7 50.6 60 3.9 NNE | 17 4.8 NNE | 24 75.2 62.0
5/8/26 - 2230 64.6 50.8 61 4.4 NNE | 30 5.3 NNE | 28 75.2 62.0
5/8/26 - 2220 64.7 50.4 60 4.2 NNE | 28 5.0 NE | 34 75.2 62.0
5/8/26 - 2210 64.5 51.0 62 3.4 NNE | 26 4.2 NNE | 25 75.2 62.0
5/8/26 - 2200 64.4 51.1 62 3.5 NNE | 32 4.0 NNE | 27 75.2 62.0
5/8/26 - 2150 64.5 51.3 62 4.7 NNE | 27 5.8 NNE | 29 75.2 62.0
5/8/26 - 2140 63.7 51.4 64 5.6 NNE | 24 6.5 NNE | 29 75.2 62.0
5/8/26 - 2130 63.4 51.7 65 5.6 NNE | 26 6.4 NNE | 33 75.2 62.0
5/8/26 - 2120 62.9 51.7 67 6.2 NNE | 23 7.0 NNE | 26 75.2 62.0
5/8/26 - 2110 62.2 51.6 68 7.1 NNE | 15 8.8 N | 9 75.2 62.0
5/8/26 - 2100 62.4 51.4 67 8.4 N | 7 9.5 N | 3 75.2 62.2
5/8/26 - 2050 62.8 51.4 66 8.4 N | 1 10.4 N | 4 75.2 62.6
5/8/26 - 2040 63.5 51.6 65 8.9 N | 360 10.2 N | 0 75.2 63.2
5/8/26 - 2030 63.7 51.5 64 9.4 NNW | 346 10.0 NNW | 342 75.2 63.5
5/8/26 - 2020 63.9 51.4 64 9.6 NNW | 339 10.6 NNW | 342 75.2 63.5
5/8/26 - 2010 64.2 51.5 63 9.2 NNW | 332 10.6 NNW | 331 75.2 63.5
5/8/26 - 2000 64.6 51.5 62 9.4 NNW | 334 10.8 NNW | 340 75.2 63.5
5/8/26 - 1950 65.0 51.2 61 9.1 NNW | 338 10.6 NNW | 342 75.2 63.5
5/8/26 - 1940 65.6 50.8 59 7.0 NNW | 330 9.9 NNW | 339 75.2 63.5
5/8/26 - 1930 65.9 50.6 58 7.1 NNW | 328 8.3 NNW | 332 75.2 63.5
5/8/26 - 1920 66.1 50.0 56 6.8 NW | 320 8.5 NW | 318 75.2 63.5
5/8/26 - 1910 66.6 49.2 53 5.2 WNW | 285 7.0 WNW | 291 75.2 63.5
5/8/26 - 1900 66.7 48.8 52 6.2 W | 272 8.8 W | 275 75.2 63.5
5/8/26 - 1850 66.8 48.4 51 7.2 WSW | 258 12.1 W | 264 75.2 63.5
5/8/26 - 1840 67.1 48.6 51 8.3 WSW | 248 11.0 WSW | 252 75.2 63.5
5/8/26 - 1830 67.8 48.7 50 9.2 WSW | 243 12.6 WSW | 247 75.2 63.5
5/8/26 - 1820 67.7 49.1 51 8.4 WSW | 243 12.0 WSW | 238 75.2 63.5
5/8/26 - 1810 67.9 49.2 51 8.3 WSW | 239 11.9 SW | 232 75.2 63.5
5/8/26 - 1800 67.9 49.6 52 8.7 SW | 234 12.7 SW | 236 75.2 63.5
5/8/26 - 1750 68.4 50.0 52 9.9 SW | 234 15.2 SW | 222 75.2 63.5
5/8/26 - 1740 69.3 49.9 50 9.0 SW | 231 12.9 SW | 233 75.2 63.5
5/8/26 - 1730 70.3 49.3 47 8.6 SW | 236 13.1 SW | 232 75.2 63.5
5/8/26 - 1720 69.9 47.4 45 10.3 SW | 235 15.4 WSW | 244 75.2 63.5
5/8/26 - 1710 70.6 47.5 44 10.8 SW | 234 16.2 WSW | 248 75.2 63.5
5/8/26 - 1700 71.2 47.6 43 12.5 SW | 233 19.1 WSW | 241 75.2 63.5
5/8/26 - 1650 71.6 47.8 43 11.6 SW | 234 19.6 SW | 231 75.2 63.5
5/8/26 - 1640 72.3 46.6 40 11.9 SW | 232 20.2 SW | 227 75.2 63.5
5/8/26 - 1630 73.0 44.8 36 10.3 SW | 234 18.1 WSW | 240 75.2 63.5
5/8/26 - 1620 72.0 41.9 34 10.3 WSW | 237 17.0 SW | 227 75.2 63.5
5/8/26 - 1610 73.4 44.3 35 9.3 SW | 228 18.6 WSW | 239 75.2 63.5
5/8/26 - 1600 71.8 45.5 39 10.9 WSW | 240 20.1 SW | 233 75.2 63.5
5/8/26 - 1550 72.2 45.8 39 14.0 WSW | 240 20.4 SSW | 201 75.2 63.5
5/8/26 - 1540 72.9 45.9 38 12.8 WSW | 237 21.7 SW | 230 75.2 63.5
5/8/26 - 1530 72.5 44.2 36 14.4 WSW | 245 22.2 WSW | 246 75.2 63.5
5/8/26 - 1520 73.3 45.3 37 12.6 SW | 236 23.7 SW | 234 75.2 63.5
5/8/26 - 1510 74.1 46.2 37 11.6 WSW | 239 21.5 W | 265 75.2 63.5
5/8/26 - 1500 73.4 46.2 38 13.1 WSW | 254 20.0 WSW | 244 74.1 63.5
5/8/26 - 1450 72.4 45.8 39 13.3 W | 265 24.3 SW | 234 74.1 63.5
5/8/26 - 1440 72.4 44.2 36 11.9 W | 260 21.1 W | 273 74.1 63.5
5/8/26 - 1430 72.5 43.6 35 10.0 W | 275 19.6 WNW | 288 74.1 63.5
5/8/26 - 1420 72.7 43.4 35 8.7 W | 273 18.1 W | 270 74.1 63.5
5/8/26 - 1410 71.9 42.8 35 7.9 W | 262 16.4 W | 269 73.8 63.5
5/8/26 - 1400 71.1 40.3 33 9.8 WNW | 299 16.8 W | 269 72.1 63.5
5/8/26 - 1350 71.0 39.8 32 10.5 W | 263 18.3 W | 278 71.7 63.5
5/8/26 - 1340 70.7 39.3 32 9.2 W | 280 16.6 W | 276 71.7 63.5
5/8/26 - 1330 70.7 40.1 33 10.7 W | 272 18.8 W | 276 71.7 63.5
5/8/26 - 1320 70.8 40.3 33 10.3 W | 276 19.3 W | 271 71.7 63.5
5/8/26 - 1310 70.2 40.5 34 10.9 W | 274 17.1 W | 262 70.7 63.5
5/8/26 - 1300 69.5 36.9 30 11.8 WNW | 291 17.0 WNW | 290 70.7 63.5
5/8/26 - 1250 69.8 40.2 34 11.5 WNW | 288 18.3 W | 281 70.7 63.5
5/8/26 - 1240 69.4 39.7 34 12.2 WNW | 286 17.4 WNW | 284 70.7 63.5
5/8/26 - 1230 69.3 40.2 35 12.0 WNW | 284 18.4 WNW | 286 70.7 63.5
5/8/26 - 1220 68.9 40.7 36 11.6 W | 279 15.9 WNW | 297 70.7 63.5
5/8/26 - 1210 69.4 42.7 38 10.9 W | 281 16.2 NW | 304 70.7 63.5
5/8/26 - 1200 69.9 41.6 36 9.8 W | 270 18.0 W | 261 70.7 63.5
5/8/26 - 1150 70.1 41.6 36 8.3 WNW | 282 13.2 W | 270 70.7 63.5
5/8/26 - 1140 69.8 40.8 35 8.5 WNW | 282 12.6 NW | 306 70.4 63.5
5/8/26 - 1130 69.6 38.8 32 8.3 W | 279 12.6 WNW | 295 70.1 63.5
5/8/26 - 1120 69.4 36.3 30 8.6 WNW | 290 13.6 WNW | 286 70.1 63.5
5/8/26 - 1110 69.3 36.7 30 8.7 W | 278 13.7 W | 267 69.8 63.5
5/8/26 - 1100 68.7 36.4 30 8.6 W | 279 12.7 WNW | 282 69.3 63.5
5/8/26 - 1050 68.2 37.3 32 8.4 W | 272 12.1 WNW | 285 69.3 63.5
5/8/26 - 1040 68.5 37.2 32 8.1 W | 265 14.8 W | 263 69.3 63.5
5/8/26 - 1030 68.4 35.8 30 7.9 W | 272 12.9 WSW | 258 69.3 63.5
5/8/26 - 1020 68.2 34.6 29 9.4 W | 272 14.5 W | 268 69.3 63.5
5/8/26 - 1010 67.9 36.0 31 9.7 W | 265 13.2 W | 262 69.3 63.5
5/8/26 - 1000 68.2 38.8 34 8.5 W | 269 13.4 W | 261 69.3 63.5
5/8/26 - 0950 68.1 36.2 31 10.3 WNW | 289 13.6 WNW | 288 69.3 63.5
5/8/26 - 0940 68.2 35.4 30 8.7 WNW | 288 13.8 WNW | 289 69.3 63.5
5/8/26 - 0930 67.9 33.7 28 10.2 WNW | 297 13.2 WNW | 299 69.3 63.5
5/8/26 - 0920 68.1 36.4 31 9.7 WNW | 300 14.2 W | 279 69.3 63.5
5/8/26 - 0910 68.6 36.9 31 7.9 NW | 307 11.6 NW | 315 69.3 63.5
5/8/26 - 0900 68.8 33.3 27 8.2 NW | 311 12.0 NW | 310 69.3 63.5
5/8/26 - 0850 68.9 31.6 25 9.4 NW | 317 12.9 NW | 308 69.3 63.5
5/8/26 - 0840 68.9 31.5 25 11.1 NW | 316 13.5 NW | 310 69.1 63.5
5/8/26 - 0830 69.0 31.2 25 11.8 NW | 316 14.5 NW | 324 69.1 63.5
5/8/26 - 0820 69.0 31.0 24 12.3 NW | 319 14.8 NW | 324 69.1 63.5
5/8/26 - 0810 68.6 31.4 25 12.8 NW | 318 15.3 NW | 317 69.0 63.5
5/8/26 - 0800 68.5 31.3 25 12.5 NW | 312 15.8 NW | 308 69.0 63.5
5/8/26 - 0750 68.6 31.0 25 13.2 NW | 316 17.6 NW | 315 69.0 63.5
5/8/26 - 0740 68.6 30.8 24 12.4 NW | 311 17.1 NW | 306 69.0 63.5
5/8/26 - 0730 68.7 30.9 24 11.4 NW | 317 15.0 NW | 309 69.0 63.5
5/8/26 - 0720 68.3 32.6 27 9.0 NW | 324 15.9 NW | 315 68.8 63.5
5/8/26 - 0710 68.0 32.8 27 10.7 NW | 319 14.6 NW | 318 68.4 63.5
Max 74.1 51.7 68 14.4 - 24.3 - 75.2 64.7
Avg 67.1 40.4 40 7.5 - 10.8 - - -
Min 62.2 18.7 16 0.5 - 1.8 - 65.0 62.0